Time;durP1;ratioP1;P1;durP2;ratioP2;P2;SDS_P1;SDS_P2;PMS_P1;PMS_P2;Temp;Humidity;BMP_temperature;BMP_pressure;BME280_temperature;BME280_humidity;BME280_pressure;Samples;Min_cycle;Max_cycle;Signal;HPM_P1;HPM_P2
2021/08/08 00:02:04;;;;;;;4.15;2.58;;;;;;;20.41;63.07;99749.73;5005414;59;21167;-83
2021/08/08 00:07:10;;;;;;;10.20;3.17;;;;;;;20.36;63.89;99743.61;5005291;59;21190;-78
2021/08/08 00:12:16;;;;;;;3.33;2.37;;;;;;;20.20;64.80;99751.16;4959028;59;21677;-81
2021/08/08 00:17:22;;;;;;;3.77;2.52;;;;;;;19.85;66.32;99775.36;4955648;60;21187;-81
2021/08/08 00:22:28;;;;;;;7.22;2.60;;;;;;;19.50;67.88;99781.19;4955634;60;21194;-78
2021/08/08 00:27:34;;;;;;;3.65;2.08;;;;;;;19.28;70.51;99798.28;4955643;60;21171;-82
2021/08/08 00:32:40;;;;;;;2.98;1.67;;;;;;;18.95;76.77;99835.48;4955621;60;21267;-82
2021/08/08 00:37:48;;;;;;;11.65;2.87;;;;;;;18.58;79.44;99848.05;4957028;59;21693;-80
2021/08/08 00:42:54;;;;;;;10.23;2.15;;;;;;;18.36;82.51;99859.66;4963001;60;21179;-82
2021/08/08 00:48:00;;;;;;;6.67;2.10;;;;;;;18.21;81.90;99828.05;4963641;60;21124;-80
2021/08/08 00:53:08;;;;;;;2.85;1.77;;;;;;;18.20;80.91;99827.21;4886379;60;22247;-79
2021/08/08 01:12:12;;;;;;;5.05;1.70;;;;;;;18.60;80.21;99780.91;4939942;59;21063;-82
2021/08/08 01:17:20;;;;;;;7.08;2.55;;;;;;;19.13;78.10;99768.03;4844454;60;21215;-83
2021/08/08 01:22:31;;;;;;;4.28;2.08;;;;;;;19.23;77.63;99754.64;4828561;61;21244;-82
2021/08/08 01:27:40;;;;;;;12.03;2.72;;;;;;;19.36;77.71;99745.05;4828448;61;21199;-83
2021/08/08 01:32:46;;;;;;;6.37;2.90;;;;;;;19.45;77.10;99746.55;4830701;61;21626;-83
2021/08/08 01:37:53;;;;;;;8.60;2.67;;;;;;;19.37;77.07;99752.90;4832710;60;21947;-79
2021/08/08 01:43:03;;;;;;;7.28;2.20;;;;;;;19.07;77.07;99768.31;4749505;60;21637;-78
2021/08/08 01:48:11;;;;;;;5.17;2.20;;;;;;;18.98;77.53;99771.62;4629187;64;21161;-79
2021/08/08 01:53:18;;;;;;;3.52;2.42;;;;;;;19.14;78.08;99771.03;4647737;62;21196;-79
2021/08/08 01:58:29;;;;;;;4.00;2.45;;;;;;;19.28;78.54;99750.84;4583194;64;21629;-80
2021/08/08 02:03:41;;;;;;;10.20;3.52;;;;;;;19.28;78.67;99729.41;4649002;62;21204;-82
2021/08/08 02:08:48;;;;;;;4.17;2.58;;;;;;;19.36;79.07;99713.70;4614582;63;21738;-80
2021/08/08 02:13:55;;;;;;;7.75;2.70;;;;;;;19.40;78.79;99698.05;4695878;63;21227;-81
2021/08/08 02:19:02;;;;;;;5.17;2.40;;;;;;;19.41;78.51;99697.83;4674073;63;21214;-80
2021/08/08 02:24:09;;;;;;;5.83;3.02;;;;;;;19.52;78.58;99724.67;4688754;62;21619;-81
2021/08/08 02:29:17;;;;;;;7.40;3.30;;;;;;;19.55;78.53;99729.14;4690631;62;22004;-79
2021/08/08 02:34:23;;;;;;;7.70;3.37;;;;;;;19.46;78.10;99700.77;4670929;63;21711;-79
2021/08/08 02:39:29;;;;;;;9.83;2.62;;;;;;;19.40;78.52;99701.53;4671178;63;21496;-78
2021/08/08 02:44:35;;;;;;;6.33;3.40;;;;;;;19.41;78.41;99705.05;4681626;62;21234;-81
2021/08/08 02:49:41;;;;;;;8.38;3.72;;;;;;;19.42;78.61;99697.31;4708210;62;21672;-79
2021/08/08 02:54:48;;;;;;;8.95;2.72;;;;;;;19.43;78.67;99723.11;4699479;62;21593;-80
2021/08/08 02:59:54;;;;;;;5.28;2.47;;;;;;;19.33;78.39;99729.66;4698129;62;21601;-79
2021/08/08 03:05:00;;;;;;;3.75;2.02;;;;;;;19.15;78.37;99736.51;4688264;62;21272;-80
2021/08/08 03:10:08;;;;;;;2.58;2.27;;;;;;;18.86;79.39;99762.43;4648328;63;21155;-80
2021/08/08 03:15:13;;;;;;;2.65;1.87;;;;;;;18.51;80.42;99768.09;4691749;61;30105;-82
2021/08/08 03:20:20;;;;;;;7.55;2.62;;;;;;;18.32;81.05;99766.53;4677653;63;21181;-80
2021/08/08 03:25:27;;;;;;;3.58;1.95;;;;;;;18.38;81.45;99759.08;4735932;62;21605;-78
2021/08/08 03:30:33;;;;;;;5.72;2.62;;;;;;;18.36;81.14;99765.12;4736388;62;21106;-78
2021/08/08 03:35:39;;;;;;;5.37;2.37;;;;;;;18.32;81.41;99776.73;4782190;62;21162;-83
2021/08/08 03:40:46;;;;;;;3.15;1.70;;;;;;;18.40;81.66;99785.98;4765797;61;21509;-84
2021/08/08 03:45:52;;;;;;;3.08;2.20;;;;;;;18.52;81.67;99791.68;4753698;62;21212;-82
2021/08/08 03:50:57;;;;;;;4.72;2.37;;;;;;;18.51;81.83;99819.47;4754069;62;22182;-82
2021/08/08 03:56:04;;;;;;;2.43;1.90;;;;;;;18.47;82.00;99819.55;4782119;62;21183;-81
2021/08/08 04:01:10;;;;;;;6.47;2.60;;;;;;;18.38;82.36;99834.87;4773520;62;21193;-81
2021/08/08 04:06:16;;;;;;;2.62;2.20;;;;;;;18.31;82.53;99845.19;4748138;62;21193;-83
2021/08/08 04:11:23;;;;;;;2.77;1.80;;;;;;;18.26;82.89;99842.55;4718255;62;21271;-81
2021/08/08 04:16:29;;;;;;;4.58;2.80;;;;;;;18.20;83.42;99843.78;4745369;62;21285;-82
2021/08/08 04:21:36;;;;;;;4.85;3.30;;;;;;;18.20;83.33;99835.75;4745330;61;21203;-80
2021/08/08 04:26:41;;;;;;;3.08;2.83;;;;;;;18.30;83.60;99846.20;4745243;61;21200;-80
2021/08/08 04:31:47;;;;;;;5.08;2.45;;;;;;;18.34;83.69;99838.92;4745131;61;21200;-83
2021/08/08 04:36:53;;;;;;;3.92;2.33;;;;;;;18.36;83.62;99854.30;4745095;62;21248;-79
2021/08/08 04:41:58;;;;;;;1.95;1.85;;;;;;;18.32;83.98;99851.70;4745093;62;21514;-79
2021/08/08 04:47:05;;;;;;;4.17;2.52;;;;;;;18.30;84.24;99851.05;4745232;62;21203;-83
2021/08/08 04:52:11;;;;;;;3.60;2.58;;;;;;;18.25;84.53;99850.75;4744903;62;21215;-81
2021/08/08 04:57:17;;;;;;;3.73;1.93;;;;;;;18.24;84.85;99840.55;4745364;62;21322;-79
2021/08/08 05:02:23;;;;;;;5.77;2.07;;;;;;;18.26;85.33;99848.41;4745207;62;22445;-80
2021/08/08 05:07:29;;;;;;;3.67;2.30;;;;;;;18.22;86.21;99856.47;4747291;62;22517;-84
2021/08/08 05:12:35;;;;;;;2.03;1.60;;;;;;;18.13;86.53;99847.72;4728207;61;21264;-82
2021/08/08 05:17:41;;;;;;;10.40;4.37;;;;;;;18.02;89.49;99864.73;4708358;62;21246;-82
2021/08/08 05:22:47;;;;;;;6.00;3.00;;;;;;;17.98;87.82;99873.63;4708337;63;21202;-79
2021/08/08 05:27:53;;;;;;;9.30;2.93;;;;;;;18.00;87.86;99881.48;4708158;63;21361;-80
2021/08/08 05:32:59;;;;;;;4.53;2.70;;;;;;;18.07;87.97;99898.45;4708134;63;21222;-83
2021/08/08 05:38:05;;;;;;;2.80;2.60;;;;;;;18.16;88.41;99899.55;4708532;62;21158;-82
2021/08/08 05:43:11;;;;;;;5.60;2.93;;;;;;;18.25;88.27;99897.60;4708235;63;22557;-82
2021/08/08 05:48:17;;;;;;;4.67;3.10;;;;;;;18.23;88.58;99891.59;4709052;63;21523;-80
2021/08/08 05:53:23;;;;;;;8.03;2.70;;;;;;;18.16;89.22;99892.85;4708551;62;22382;-82
2021/08/08 05:58:29;;;;;;;10.03;2.13;;;;;;;18.12;91.03;99892.89;4709005;62;21226;-83
2021/08/08 06:03:35;;;;;;;4.67;2.60;;;;;;;18.07;90.42;99902.47;4708953;63;21159;-83
2021/08/08 06:08:40;;;;;;;7.47;2.27;;;;;;;18.06;91.84;99914.18;4705721;63;21209;-80
2021/08/08 06:13:46;;;;;;;5.43;3.43;;;;;;;18.08;92.06;99926.88;4728857;62;21527;-83
2021/08/08 06:18:52;;;;;;;8.97;3.53;;;;;;;18.09;92.50;99905.80;4745278;62;21188;-83
2021/08/08 06:23:59;;;;;;;3.70;3.10;;;;;;;18.16;92.77;99914.77;4745757;62;21224;-81
2021/08/08 06:29:05;;;;;;;6.03;4.13;;;;;;;18.23;93.06;99938.44;4745543;62;21565;-81
2021/08/08 06:34:11;;;;;;;6.25;3.45;;;;;;;18.34;93.09;99955.89;4745866;62;22403;-80
2021/08/08 06:39:17;;;;;;;5.20;3.30;;;;;;;18.45;93.28;99961.66;4745242;62;22488;-83
2021/08/08 06:44:26;;;;;;;7.00;3.73;;;;;;;18.43;92.27;99966.36;4745295;62;21253;-81
2021/08/08 06:49:31;;;;;;;4.28;2.95;;;;;;;18.43;91.83;99956.98;4751557;60;21194;-81
2021/08/08 06:54:37;;;;;;;8.38;3.08;;;;;;;18.51;91.99;99955.55;4745245;62;21200;-80
2021/08/08 06:59:43;;;;;;;2.80;2.60;;;;;;;18.60;91.92;99966.55;4745016;62;21207;-82
2021/08/08 07:04:52;;;;;;;2.55;2.00;;;;;;;18.61;91.21;99957.50;4745000;62;21195;-81
2021/08/08 07:09:58;;;;;;;3.33;2.80;;;;;;;18.55;91.79;99983.63;4749392;62;21221;-82
2021/08/08 07:15:05;;;;;;;3.47;1.97;;;;;;;18.50;91.35;99982.00;4721326;61;21249;-83
2021/08/08 07:20:12;;;;;;;2.52;2.33;;;;;;;18.45;90.63;99954.13;4709063;63;21686;-82
2021/08/08 07:25:18;;;;;;;4.58;2.87;;;;;;;18.45;90.75;99964.84;4708656;63;21239;-80
2021/08/08 07:30:24;;;;;;;3.25;2.33;;;;;;;18.45;90.33;99972.36;4703194;63;21270;-80
2021/08/08 07:35:30;;;;;;;6.62;2.52;;;;;;;18.52;90.78;99971.94;4708527;62;21245;-82
2021/08/08 07:40:36;;;;;;;4.83;3.72;;;;;;;18.56;90.56;99955.00;4708801;63;21274;-83
2021/08/08 07:45:42;;;;;;;2.40;2.17;;;;;;;18.58;90.34;99940.92;4708145;63;21253;-82
2021/08/08 07:50:48;;;;;;;3.23;2.50;;;;;;;18.67;90.39;99947.03;4707928;63;21206;-84
2021/08/08 07:55:55;;;;;;;5.22;3.15;;;;;;;18.70;90.54;99970.27;4708009;63;21154;-83
2021/08/08 08:01:02;;;;;;;2.83;2.05;;;;;;;18.78;90.24;99983.59;4707827;62;22386;-81
2021/08/08 08:06:07;;;;;;;8.78;3.02;;;;;;;18.84;89.39;99976.14;4706329;63;21150;-83
2021/08/08 08:11:13;;;;;;;2.15;1.72;;;;;;;18.81;89.48;99976.50;4703634;63;21273;-80
2021/08/08 08:16:19;;;;;;;5.53;2.90;;;;;;;18.86;90.30;99987.50;4682880;61;21229;-80
2021/08/08 08:21:24;;;;;;;4.08;2.77;;;;;;;18.90;89.50;100001.38;4676742;63;21162;-80
2021/08/08 08:26:30;;;;;;;5.65;3.27;;;;;;;19.00;88.96;99998.40;4676811;63;21225;-81
2021/08/08 08:31:36;;;;;;;7.08;3.02;;;;;;;19.07;88.64;100011.39;4677021;63;21253;-80
2021/08/08 08:36:44;;;;;;;5.28;2.35;;;;;;;19.09;87.10;100019.58;4677857;63;21282;-80
2021/08/08 08:41:53;;;;;;;3.17;2.60;;;;;;;19.10;86.01;100025.73;4677935;63;21221;-80
2021/08/08 08:47:00;;;;;;;2.60;1.75;;;;;;;19.16;85.66;100031.20;4677851;63;22417;-80
2021/08/08 08:52:08;;;;;;;1.72;1.62;;;;;;;19.37;85.26;100029.61;4677819;63;21229;-84
2021/08/08 08:57:17;;;;;;;5.90;2.15;;;;;;;19.70;85.93;100034.06;4678064;63;21170;-82
2021/08/08 09:02:23;;;;;;;2.12;1.85;;;;;;;19.79;81.84;100032.40;4708114;62;21273;-82
2021/08/08 09:07:29;;;;;;;2.60;1.95;;;;;;;20.02;82.27;100030.34;4604117;63;21169;-83
2021/08/08 09:12:35;;;;;;;4.47;2.15;;;;;;;20.29;81.38;100030.61;4683090;62;21155;-79
2021/08/08 09:17:42;;;;;;;3.95;1.30;;;;;;;20.53;79.88;100028.86;4733073;61;21210;-80
2021/08/08 09:22:53;;;;;;;5.90;2.35;;;;;;;20.74;79.40;100032.53;4739791;62;21226;-79
2021/08/08 09:28:12;;;;;;;1.65;1.07;;;;;;;20.87;77.17;100038.82;4739688;62;21265;-79
2021/08/08 09:33:19;;;;;;;1.57;1.47;;;;;;;20.91;75.30;100046.81;4749596;62;21287;-79
2021/08/08 09:38:25;;;;;;;1.52;1.12;;;;;;;21.04;74.56;100065.71;4774576;61;21267;-78
2021/08/08 09:43:32;;;;;;;2.52;1.50;;;;;;;21.17;72.32;100061.44;4753625;62;21317;-79
2021/08/08 09:48:39;;;;;;;4.45;1.30;;;;;;;21.34;70.64;100073.05;4790443;61;21467;-79
2021/08/08 09:53:49;;;;;;;3.40;1.20;;;;;;;21.52;68.00;100069.81;4808596;61;21316;-78
2021/08/08 09:59:00;;;;;;;1.22;1.12;;;;;;;21.66;69.74;100086.33;4766888;61;21547;-79
2021/08/08 10:04:07;;;;;;;3.27;1.10;;;;;;;21.90;69.74;100093.53;4803412;61;21181;-78
2021/08/08 10:09:13;;;;;;;1.15;1.00;;;;;;;22.21;68.37;100098.41;4705548;61;21271;-78
2021/08/08 10:14:19;;;;;;;2.80;0.90;;;;;;;22.42;66.42;100113.89;4773320;61;21170;-78
2021/08/08 10:19:24;;;;;;;1.62;1.20;;;;;;;22.67;67.17;100111.92;4762306;61;21202;-79
2021/08/08 10:24:31;;;;;;;2.50;1.35;;;;;;;22.83;66.30;100121.49;4637081;64;21192;-79
2021/08/08 10:29:37;;;;;;;1.75;1.00;;;;;;;22.82;64.06;100114.44;4756816;62;21575;-78
2021/08/08 10:34:43;;;;;;;2.08;0.93;;;;;;;22.85;63.68;100115.37;4588219;63;21259;-78
2021/08/08 10:39:50;;;;;;;1.85;0.70;;;;;;;22.91;62.83;100115.39;4734414;62;21706;-78
2021/08/08 10:44:59;;;;;;;1.05;0.80;;;;;;;23.05;62.28;100108.11;4761987;61;21181;-79
2021/08/08 10:50:14;;;;;;;0.72;0.57;;;;;;;23.22;60.28;100114.69;4607898;62;30710;-86
2021/08/08 10:55:27;;;;;;;0.70;0.70;;;;;;;23.38;61.29;100122.33;4740347;62;21216;-81
2021/08/08 11:00:35;;;;;;;3.15;1.10;;;;;;;23.50;58.18;100127.41;4737329;62;21195;-84
2021/08/08 11:05:41;;;;;;;3.12;0.62;;;;;;;23.64;57.92;100124.69;4734095;62;21111;-82
2021/08/08 11:10:47;;;;;;;13.72;4.70;;;;;;;23.55;57.93;100125.95;4731469;62;21234;-82
2021/08/08 11:15:54;;;;;;;2.67;1.92;;;;;;;23.71;58.64;100129.00;4743948;61;21582;-82
2021/08/08 11:21:00;;;;;;;1.40;0.55;;;;;;;23.94;56.03;100127.67;4777750;61;21495;-84
2021/08/08 11:26:05;;;;;;;2.05;0.85;;;;;;;24.04;56.99;100139.66;4772295;61;21757;-82
2021/08/08 11:31:25;;;;;;;0.68;0.40;;;;;;;23.94;56.04;100130.38;4820221;61;21224;-82
2021/08/08 11:36:38;;;;;;;0.75;0.60;;;;;;;23.69;55.24;100142.41;4820059;61;21484;-81
2021/08/08 11:41:45;;;;;;;1.75;0.72;;;;;;;23.68;57.01;100142.92;4812649;61;21238;-82
2021/08/08 11:46:54;;;;;;;1.77;0.75;;;;;;;23.87;56.03;100139.02;4778360;61;21746;-80
2021/08/08 11:52:03;;;;;;;1.62;0.90;;;;;;;23.85;56.79;100140.58;4813460;61;22400;-80
2021/08/08 11:57:13;;;;;;;1.45;1.10;;;;;;;24.21;55.77;100152.15;4792914;61;21269;-81
2021/08/08 12:02:19;;;;;;;1.45;1.10;;;;;;;24.45;54.98;100159.50;4821130;61;21215;-83
2021/08/08 12:12:39;;;;;;;0.98;0.53;;;;;;;24.43;55.29;100158.09;5407931;55;21035;-82
2021/08/08 12:17:45;;;;;;;1.22;0.90;;;;;;;24.62;55.77;100159.80;5106622;57;21193;-82
2021/08/08 12:22:50;;;;;;;14.33;10.58;;;;;;;24.88;52.17;100173.67;5156304;57;21242;-79
2021/08/08 12:27:56;;;;;;;0.82;0.78;;;;;;;25.03;51.62;100174.72;5106642;58;21229;-82
2021/08/08 12:33:12;;;;;;;1.85;0.55;;;;;;;25.22;50.43;100169.63;5106386;58;21475;-81
2021/08/08 12:38:19;;;;;;;1.82;0.50;;;;;;;25.24;50.39;100184.61;5106188;58;21329;-82
2021/08/08 12:43:30;;;;;;;1.25;0.70;;;;;;;25.36;50.82;100198.78;5106865;58;21193;-83
2021/08/08 12:48:36;;;;;;;1.80;0.60;;;;;;;25.32;49.75;100185.38;5106801;58;21194;-82
2021/08/08 12:53:42;;;;;;;0.40;0.40;;;;;;;25.37;48.90;100196.35;5106594;58;21221;-82
2021/08/08 12:58:51;;;;;;;0.82;0.57;;;;;;;25.42;49.19;100197.34;5106665;58;21169;-83
2021/08/08 13:03:55;;;;;;;5.90;1.40;;;;;;;25.53;48.35;100208.78;5106763;57;21238;-79
2021/08/08 13:09:01;;;;;;;3.67;0.50;;;;;;;25.63;49.40;100209.67;5113161;57;21223;-81
2021/08/08 13:14:07;;;;;;;2.33;0.60;;;;;;;25.79;48.78;100194.18;5191263;57;21188;-83
2021/08/08 13:19:13;;;;;;;2.12;0.60;;;;;;;25.97;49.56;100197.94;5163886;57;21187;-82
2021/08/08 13:24:20;;;;;;;1.10;0.33;;;;;;;26.03;47.13;100209.20;5188468;57;21531;-82
2021/08/08 13:29:25;;;;;;;0.95;0.68;;;;;;;25.93;45.12;100201.62;5158642;57;21172;-83
2021/08/08 13:34:31;;;;;;;0.40;0.40;;;;;;;26.04;47.62;100201.38;5145899;57;21290;-82
2021/08/08 13:39:37;;;;;;;4.45;1.00;;;;;;;26.26;45.79;100209.34;5168310;57;21525;-79
2021/08/08 13:44:43;;;;;;;2.80;0.50;;;;;;;26.01;46.07;100216.73;5130155;57;22156;-79
2021/08/08 13:49:49;;;;;;;0.42;0.42;;;;;;;25.98;46.62;100221.25;5134755;57;21148;-81
2021/08/08 13:54:55;;;;;;;1.50;0.93;;;;;;;25.68;47.67;100223.87;5151671;57;21168;-79
2021/08/08 14:00:01;;;;;;;2.75;0.78;;;;;;;25.54;48.14;100238.05;5170217;57;21195;-80
2021/08/08 14:05:14;;;;;;;1.75;1.02;;;;;;;25.53;48.49;100237.22;5189292;57;21163;-81
2021/08/08 14:10:20;;;;;;;1.60;0.50;;;;;;;25.67;49.35;100234.41;5087694;58;21243;-79
2021/08/08 14:15:26;;;;;;;3.27;0.80;;;;;;;25.85;48.06;100237.97;5189327;57;21148;-82
2021/08/08 14:20:31;;;;;;;4.80;0.88;;;;;;;26.11;47.33;100246.34;5189386;56;21657;-79
2021/08/08 14:25:37;;;;;;;0.75;0.60;;;;;;;26.20;45.00;100253.63;5189228;57;21573;-81
2021/08/08 14:30:42;;;;;;;2.30;0.82;;;;;;;26.28;46.96;100246.52;5189324;57;21727;-81
2021/08/08 14:35:48;;;;;;;1.90;0.62;;;;;;;26.25;45.52;100246.47;5189217;57;21179;-83
2021/08/08 14:40:53;;;;;;;0.62;0.62;;;;;;;26.42;47.47;100252.66;5189470;57;21137;-81
2021/08/08 14:45:59;;;;;;;2.05;0.45;;;;;;;26.43;46.38;100251.60;5189558;56;21175;-79
2021/08/08 14:51:05;;;;;;;0.72;0.72;;;;;;;26.68;46.86;100251.45;5180076;57;22654;-79
2021/08/08 14:56:10;;;;;;;1.50;0.50;;;;;;;26.63;44.96;100261.10;5180216;56;21234;-77
2021/08/08 15:01:16;;;;;;;4.42;1.00;;;;;;;26.36;45.75;100261.69;5180194;57;21172;-81
2021/08/08 15:06:22;;;;;;;2.58;1.02;;;;;;;26.20;46.95;100267.17;5210319;56;21416;-80
2021/08/08 15:11:28;;;;;;;1.07;0.98;;;;;;;26.21;44.27;100260.70;5275501;55;21074;-80
2021/08/08 15:16:34;;;;;;;3.52;0.45;;;;;;;26.32;44.17;100274.04;5276533;56;22194;-81
2021/08/08 15:21:40;;;;;;;1.17;0.65;;;;;;;26.40;44.13;100276.45;5276396;56;21082;-79
2021/08/08 15:26:46;;;;;;;1.92;1.07;;;;;;;26.28;44.53;100285.83;5269140;56;21172;-81
2021/08/08 15:31:52;;;;;;;1.75;1.10;;;;;;;26.20;46.45;100288.34;5267264;56;21181;-77
2021/08/08 15:36:58;;;;;;;1.65;0.75;;;;;;;26.16;44.89;100293.91;5267155;56;21212;-81
2021/08/08 15:42:04;;;;;;;3.25;0.37;;;;;;;26.06;45.83;100300.91;5272901;56;21090;-79
2021/08/08 15:47:11;;;;;;;0.78;0.78;;;;;;;25.96;45.63;100304.68;5276555;56;21164;-81
2021/08/08 15:52:17;;;;;;;0.75;0.75;;;;;;;25.88;46.12;100309.85;5276369;56;21436;-78
2021/08/08 15:57:22;;;;;;;1.57;0.65;;;;;;;25.90;47.45;100309.94;5276484;55;21171;-79
2021/08/08 16:02:28;;;;;;;2.67;0.70;;;;;;;25.87;45.84;100317.67;5276405;56;21598;-81
2021/08/08 16:07:34;;;;;;;7.92;0.75;;;;;;;25.74;46.36;100335.41;5225521;55;21091;-81
2021/08/08 16:12:40;;;;;;;0.78;0.70;;;;;;;25.61;46.77;100337.69;5188798;56;21159;-80
2021/08/08 16:17:45;;;;;;;5.72;0.50;;;;;;;25.50;47.25;100337.89;5188892;57;21095;-77
2021/08/08 16:22:51;;;;;;;2.65;0.98;;;;;;;25.42;47.20;100348.98;5189230;57;21207;-79
